createdAt,value
2022-10-25T00:02:21.476Z,17.67
2022-10-25T00:04:49.701Z,18.77
2022-10-25T00:07:17.516Z,15.30
2022-10-25T00:09:45.286Z,18.27
2022-10-25T00:12:13.246Z,17.50
2022-10-25T00:14:41.094Z,23.00
2022-10-25T00:17:09.474Z,24.23
2022-10-25T00:19:37.408Z,16.52
2022-10-25T00:22:05.217Z,18.30
2022-10-25T00:24:33.039Z,18.80
2022-10-25T00:27:00.875Z,18.67
2022-10-25T00:29:29.112Z,15.68
2022-10-25T00:31:56.943Z,15.82
2022-10-25T00:34:24.747Z,15.18
2022-10-25T00:36:52.570Z,18.50
2022-10-25T00:39:20.352Z,19.63
2022-10-25T00:41:48.177Z,16.90
2022-10-25T00:44:40.671Z,13.85
2022-10-25T00:47:16.093Z,15.60
2022-10-25T00:49:45.490Z,21.77
2022-10-25T00:52:13.914Z,17.02
2022-10-25T00:54:52.160Z,19.13
2022-10-25T00:57:30.676Z,16.30
2022-10-25T00:59:59.654Z,16.75
2022-10-25T01:02:28.132Z,16.08
2022-10-25T01:04:56.147Z,19.67
2022-10-25T01:07:24.065Z,16.08
2022-10-25T01:09:52.588Z,14.63
2022-10-25T01:12:20.364Z,17.73
2022-10-25T01:14:51.010Z,17.70
2022-10-25T01:17:38.946Z,14.55
2022-10-25T01:20:28.174Z,17.77
2022-10-25T01:23:29.906Z,14.38
2022-10-25T01:26:19.141Z,18.17
2022-10-25T01:29:14.265Z,15.77
2022-10-25T01:32:12.878Z,20.38
2022-10-25T01:34:52.339Z,13.30
2022-10-25T01:37:31.066Z,19.27
2022-10-25T01:40:17.220Z,16.70
2022-10-25T01:43:20.762Z,17.23
2022-10-25T01:45:48.696Z,12.13
2022-10-25T01:48:33.394Z,17.23
2022-10-25T01:51:12.476Z,16.63
2022-10-25T01:53:45.186Z,13.88
2022-10-25T01:56:26.332Z,18.08
2022-10-25T01:58:54.033Z,14.95
2022-10-25T02:01:46.656Z,17.70
2022-10-25T02:04:32.770Z,22.48
2022-10-25T02:07:08.539Z,15.68
2022-10-25T02:10:07.445Z,13.68
2022-10-25T02:13:02.264Z,19.88
2022-10-25T02:18:03.920Z,17.02
2022-10-25T02:20:35.626Z,13.20
2022-10-25T02:23:05.699Z,18.33
2022-10-25T02:25:36.279Z,13.07
2022-10-25T02:28:08.347Z,13.85
2022-10-25T02:30:38.429Z,15.73
2022-10-25T02:33:06.881Z,13.55
2022-10-25T02:35:34.689Z,13.98
2022-10-25T02:38:02.560Z,10.65
2022-10-25T02:40:31.041Z,10.15
2022-10-25T02:42:58.798Z,10.55
2022-10-25T02:45:26.630Z,11.80
2022-10-25T02:47:54.560Z,11.55
2022-10-25T02:50:22.521Z,11.60
2022-10-25T02:52:50.356Z,16.88
2022-10-25T02:55:18.163Z,14.63
2022-10-25T02:57:45.938Z,10.00
2022-10-25T03:00:14.405Z,18.35
2022-10-25T03:02:42.190Z,14.32
2022-10-25T03:05:10.067Z,13.77
2022-10-25T03:07:37.914Z,10.13
2022-10-25T03:10:06.278Z,10.88
2022-10-25T03:12:34.038Z,11.75
2022-10-25T03:15:01.830Z,13.52
2022-10-25T03:17:29.778Z,9.63
2022-10-25T03:19:57.668Z,14.95
2022-10-25T03:22:25.481Z,12.48
2022-10-25T03:24:53.365Z,13.48
2022-10-25T03:27:21.244Z,16.25
2022-10-25T03:29:49.022Z,13.88
2022-10-25T03:32:16.854Z,12.30
2022-10-25T03:34:44.700Z,15.70
2022-10-25T03:37:12.475Z,16.65
2022-10-25T03:39:40.331Z,14.30
2022-10-25T03:42:08.119Z,20.05
2022-10-25T03:44:36.149Z,13.48
2022-10-25T03:47:04.032Z,10.80
2022-10-25T03:49:31.862Z,11.65
2022-10-25T03:52:01.345Z,16.33
2022-10-25T03:54:32.803Z,13.30
2022-10-25T03:57:01.314Z,10.68
2022-10-25T03:59:29.182Z,14.30
2022-10-25T04:01:57.351Z,13.95
2022-10-25T04:04:25.249Z,12.30
2022-10-25T04:06:53.024Z,14.43
2022-10-25T04:09:20.865Z,11.80
2022-10-25T04:11:48.674Z,10.52
2022-10-25T04:14:16.528Z,13.02
2022-10-25T04:16:44.319Z,15.85
2022-10-25T04:19:12.096Z,12.48
2022-10-25T04:21:39.936Z,13.35
2022-10-25T04:24:07.916Z,14.80
2022-10-25T04:26:36.848Z,11.07
2022-10-25T04:29:06.241Z,13.07
2022-10-25T04:31:34.080Z,16.83
2022-10-25T04:34:01.938Z,12.75
2022-10-25T04:36:30.969Z,16.50
2022-10-25T04:38:58.756Z,16.95
2022-10-25T04:41:26.575Z,10.88
2022-10-25T04:43:54.455Z,11.68
2022-10-25T04:46:22.347Z,14.63
2022-10-25T04:48:50.262Z,14.95
2022-10-25T04:51:18.039Z,13.80
2022-10-25T04:53:45.971Z,12.48
2022-10-25T04:56:14.635Z,10.35
2022-10-25T04:58:42.539Z,13.57
2022-10-25T05:01:14.399Z,12.30
2022-10-25T05:03:42.815Z,10.70
2022-10-25T05:06:12.612Z,11.88
2022-10-25T05:08:44.266Z,11.90
2022-10-25T05:11:14.177Z,13.35
2022-10-25T05:13:42.755Z,14.23
2022-10-25T05:16:14.925Z,8.85
2022-10-25T05:18:43.058Z,12.00
2022-10-25T05:21:10.862Z,9.38
2022-10-25T05:23:38.884Z,8.95
2022-10-25T05:26:12.875Z,6.10
2022-10-25T05:28:43.871Z,8.15
2022-10-25T05:31:17.672Z,8.65
2022-10-25T05:33:46.388Z,9.57
2022-10-25T05:36:14.941Z,6.60
2022-10-25T05:38:43.642Z,5.57
2022-10-25T05:41:16.310Z,7.38
2022-10-25T05:43:45.231Z,5.93
2022-10-25T05:46:19.091Z,4.35
2022-10-25T05:48:49.977Z,7.22
2022-10-25T05:51:40.370Z,4.72
2022-10-25T05:54:12.051Z,4.57
2022-10-25T05:56:41.241Z,5.43
2022-10-25T05:59:11.145Z,4.32
2022-10-25T06:01:45.018Z,5.65
2022-10-25T06:04:19.344Z,8.95
2022-10-25T06:06:54.413Z,11.00
2022-10-25T06:09:25.469Z,4.47
2022-10-25T06:11:54.356Z,5.05
2022-10-25T06:14:24.415Z,4.32
2022-10-25T06:16:55.037Z,7.70
2022-10-25T06:19:26.035Z,6.47
2022-10-25T06:21:56.826Z,7.30
2022-10-25T06:24:24.776Z,3.00
2022-10-25T06:26:52.669Z,5.03
2022-10-25T06:29:20.784Z,9.27
2022-10-25T06:31:49.749Z,7.60
2022-10-25T06:34:17.683Z,7.15
2022-10-25T06:36:45.547Z,9.38
2022-10-25T06:39:13.407Z,6.95
2022-10-25T06:41:41.353Z,5.70
2022-10-25T06:44:10.212Z,5.30
2022-10-25T06:47:11.688Z,6.20
2022-10-25T06:49:27.918Z,4.22
2022-10-25T06:51:55.821Z,8.68
2022-10-25T06:54:25.675Z,5.75
2022-10-25T06:56:53.666Z,7.10
2022-10-25T06:59:21.587Z,4.38
2022-10-25T07:01:50.386Z,8.15
2022-10-25T07:04:18.506Z,6.90
2022-10-25T07:06:48.835Z,1.73
2022-10-25T07:09:20.434Z,2.47
2022-10-25T07:11:48.380Z,3.60
2022-10-25T07:14:16.300Z,6.22
2022-10-25T07:16:44.172Z,3.55
2022-10-25T07:19:12.165Z,3.92
2022-10-25T07:21:41.154Z,5.72
2022-10-25T07:24:11.333Z,3.88
2022-10-25T07:26:40.585Z,4.35
2022-10-25T07:29:09.225Z,7.13
2022-10-25T07:31:41.204Z,4.05
2022-10-25T07:34:12.485Z,9.27
2022-10-25T07:36:41.106Z,7.75
2022-10-25T07:39:09.060Z,4.45
2022-10-25T07:41:37.100Z,3.88
2022-10-25T07:44:05.323Z,2.38
2022-10-25T07:46:33.265Z,2.50
2022-10-25T07:49:01.192Z,3.53
2022-10-25T07:51:30.186Z,7.10
2022-10-25T07:53:57.984Z,3.92
2022-10-25T07:56:25.993Z,3.25
2022-10-25T07:58:54.043Z,2.65
2022-10-25T08:01:24.628Z,2.67
2022-10-25T08:03:53.548Z,1.83
2022-10-25T08:06:23.393Z,4.60
2022-10-25T08:08:52.017Z,2.80
2022-10-25T08:11:22.532Z,1.70
2022-10-25T08:13:51.086Z,9.57
2022-10-25T08:16:19.610Z,3.70
2022-10-25T08:18:47.674Z,2.50
2022-10-25T08:21:15.615Z,4.57
2022-10-25T08:23:43.501Z,5.97
2022-10-25T08:26:11.410Z,4.75
2022-10-25T08:28:39.380Z,5.13
2022-10-25T08:31:07.426Z,6.97
2022-10-25T08:33:36.284Z,5.95
2022-10-25T08:36:07.123Z,7.82
2022-10-25T08:38:35.127Z,7.38
2022-10-25T08:41:29.148Z,7.70
2022-10-25T08:43:57.083Z,6.20
2022-10-25T08:46:34.827Z,9.25
2022-10-25T08:49:25.652Z,7.97
2022-10-25T08:51:56.093Z,7.32
2022-10-25T08:54:38.321Z,7.97
2022-10-25T08:57:19.845Z,13.13
2022-10-25T08:59:52.268Z,10.45
2022-10-25T09:02:41.416Z,10.95
2022-10-25T09:05:52.463Z,10.88
2022-10-25T09:08:37.191Z,10.65
2022-10-25T09:11:29.603Z,9.43
2022-10-25T09:14:06.663Z,12.77
2022-10-25T09:17:01.692Z,8.77
2022-10-25T09:19:36.435Z,13.10
2022-10-25T09:22:09.596Z,12.60
2022-10-25T09:24:52.828Z,12.77
2022-10-25T09:27:34.247Z,9.05
2022-10-25T09:30:07.276Z,14.68
2022-10-25T09:32:47.838Z,10.23
2022-10-25T09:35:21.089Z,11.10
2022-10-25T09:37:52.506Z,8.73
2022-10-25T09:40:26.334Z,6.50
2022-10-25T09:43:14.742Z,6.78
2022-10-25T09:45:48.540Z,8.75
2022-10-25T09:48:39.501Z,8.77
2022-10-25T09:51:18.472Z,8.55
2022-10-25T09:53:47.369Z,9.82
2022-10-25T09:56:17.446Z,9.20
2022-10-25T09:58:47.344Z,7.80
2022-10-25T10:01:20.342Z,7.75
2022-10-25T10:03:52.399Z,7.43
2022-10-25T10:06:34.737Z,6.45
2022-10-25T10:09:08.844Z,4.55
2022-10-25T10:11:37.131Z,4.53
2022-10-25T10:14:36.784Z,9.52
2022-10-25T10:17:07.667Z,5.60
2022-10-25T10:19:35.617Z,5.28
2022-10-25T10:22:13.081Z,6.47
2022-10-25T10:24:48.001Z,5.55
2022-10-25T10:27:22.059Z,5.97
2022-10-25T10:29:54.689Z,8.32
2022-10-25T10:32:44.335Z,5.05
2022-10-25T10:35:35.638Z,6.35
2022-10-25T10:38:24.791Z,4.32
2022-10-25T10:41:13.682Z,4.95
2022-10-25T10:43:42.352Z,3.55
2022-10-25T10:46:16.463Z,6.53
2022-10-25T10:48:46.530Z,5.60
2022-10-25T10:54:23.999Z,5.38
2022-10-25T10:57:04.051Z,9.60
2022-10-25T10:59:52.658Z,5.13
2022-10-25T11:02:32.745Z,7.57
2022-10-25T11:05:01.062Z,8.48
2022-10-25T11:07:35.940Z,6.10
2022-10-25T11:10:16.367Z,8.38
2022-10-25T11:12:45.138Z,6.30
2022-10-25T11:15:14.594Z,6.80
2022-10-25T11:18:04.000Z,9.65
2022-10-25T11:20:39.908Z,4.78
2022-10-25T11:23:18.973Z,8.68
2022-10-25T11:25:56.345Z,7.60
2022-10-25T11:28:40.146Z,6.82
2022-10-25T11:31:17.552Z,6.95
2022-10-25T11:34:07.754Z,8.32
2022-10-25T11:37:12.758Z,6.47
2022-10-25T11:40:20.766Z,6.25
2022-10-25T11:43:16.494Z,5.50
2022-10-25T11:45:57.139Z,6.10
2022-10-25T11:48:37.481Z,9.25
2022-10-25T11:51:44.441Z,4.75
2022-10-25T11:54:41.030Z,4.35
2022-10-25T11:57:23.976Z,6.63
2022-10-25T12:00:11.592Z,5.85
2022-10-25T12:02:58.880Z,7.10
2022-10-25T12:05:58.156Z,3.35
2022-10-25T12:08:47.404Z,8.43
2022-10-25T12:11:25.642Z,5.00
2022-10-25T12:13:58.340Z,7.13
2022-10-25T12:16:30.436Z,6.88
2022-10-25T12:19:19.742Z,6.93
2022-10-25T12:22:02.519Z,5.75
2022-10-25T12:24:44.800Z,10.00
2022-10-25T12:27:22.261Z,8.35
2022-10-25T12:30:01.255Z,6.18
2022-10-25T12:32:51.505Z,8.18
2022-10-25T12:35:28.910Z,9.50
2022-10-25T12:38:02.907Z,6.18
2022-10-25T12:40:42.744Z,8.13
2022-10-25T12:43:45.057Z,7.50
2022-10-25T12:46:46.524Z,6.88
2022-10-25T12:49:59.539Z,8.90
2022-10-25T12:52:40.304Z,8.95
2022-10-25T12:55:43.938Z,7.25
2022-10-25T12:59:05.202Z,4.68
2022-10-25T13:01:39.466Z,7.15
2022-10-25T13:04:22.754Z,6.35
2022-10-25T13:06:53.307Z,7.68
2022-10-25T13:09:27.000Z,8.10
2022-10-25T13:14:49.461Z,6.43
2022-10-25T13:17:22.749Z,9.07
2022-10-25T13:20:11.160Z,11.05
2022-10-25T13:22:40.510Z,8.30
2022-10-25T13:25:08.297Z,8.25
2022-10-25T13:27:45.825Z,11.27
2022-10-25T13:30:39.077Z,10.05
2022-10-25T13:33:19.569Z,7.47
2022-10-25T13:35:50.911Z,7.28
2022-10-25T13:38:26.473Z,7.10
2022-10-25T13:41:18.322Z,8.13
2022-10-25T13:44:05.567Z,6.85
2022-10-25T13:46:41.326Z,8.65
2022-10-25T13:49:44.087Z,7.40
2022-10-25T13:52:35.389Z,7.70
2022-10-25T13:55:10.446Z,9.30
2022-10-25T13:57:54.415Z,11.10
2022-10-25T14:00:22.435Z,10.00
2022-10-25T14:03:22.863Z,8.35
2022-10-25T14:05:55.655Z,9.88
2022-10-25T14:08:35.783Z,8.07
2022-10-25T14:11:14.153Z,8.50
2022-10-25T14:14:06.415Z,6.05
2022-10-25T14:17:03.540Z,7.28
2022-10-25T14:19:43.478Z,8.27
2022-10-25T14:22:22.489Z,5.32
2022-10-25T14:24:54.082Z,6.70
2022-10-25T14:27:36.871Z,7.25
2022-10-25T14:30:25.484Z,8.45
2022-10-25T14:33:06.411Z,14.85
2022-10-25T14:35:37.520Z,6.00
2022-10-25T14:38:16.960Z,11.32
2022-10-25T14:41:11.875Z,6.93
2022-10-25T14:43:41.746Z,8.70
2022-10-25T14:46:18.233Z,8.30
2022-10-25T14:48:48.604Z,6.95
2022-10-25T14:51:22.308Z,11.13
2022-10-25T14:54:04.034Z,7.32
2022-10-25T14:56:49.713Z,9.57
2022-10-25T14:59:31.598Z,9.23
2022-10-25T15:02:23.048Z,8.98
2022-10-25T15:04:53.843Z,11.52
2022-10-25T15:07:42.989Z,12.82
2022-10-25T15:10:43.819Z,8.35
2022-10-25T15:13:29.889Z,12.88
2022-10-25T15:16:03.271Z,8.98
2022-10-25T15:18:36.234Z,8.25
2022-10-25T15:21:08.580Z,10.55
2022-10-25T15:23:38.265Z,9.52
2022-10-25T15:26:26.825Z,8.27
2022-10-25T15:29:00.785Z,12.77
2022-10-25T15:31:31.366Z,13.02
2022-10-25T15:34:06.919Z,12.77
2022-10-25T15:36:35.305Z,10.18
2022-10-25T15:39:21.830Z,13.82
2022-10-25T15:41:50.795Z,10.13
2022-10-25T15:44:19.420Z,8.95
2022-10-25T15:46:51.576Z,11.07
2022-10-25T15:49:19.844Z,10.90
2022-10-25T15:51:48.156Z,10.18
2022-10-25T15:54:18.753Z,7.80
2022-10-25T15:56:47.866Z,6.53
2022-10-25T16:01:53.727Z,8.07
2022-10-25T16:04:23.652Z,5.57
2022-10-25T16:06:54.536Z,6.95
2022-10-25T16:09:22.486Z,10.00
2022-10-25T16:11:54.375Z,9.23
2022-10-25T16:14:25.790Z,8.70
2022-10-25T16:16:53.670Z,7.82
2022-10-25T16:19:26.519Z,7.35
2022-10-25T16:21:55.071Z,10.05
2022-10-25T16:24:22.985Z,6.88
2022-10-25T16:26:51.421Z,9.05
2022-10-25T16:29:27.142Z,5.18
2022-10-25T16:31:55.144Z,7.97
2022-10-25T16:34:23.023Z,2.90
2022-10-25T16:36:52.682Z,11.05
2022-10-25T16:39:20.663Z,4.38
2022-10-25T16:41:49.134Z,4.68
2022-10-25T16:44:20.342Z,7.07
2022-10-25T16:46:55.952Z,3.55
2022-10-25T16:49:28.892Z,6.68
2022-10-25T16:52:08.924Z,7.53
2022-10-25T16:54:50.645Z,6.10
2022-10-25T16:57:19.210Z,5.22
2022-10-25T16:59:47.140Z,5.25
2022-10-25T17:02:20.437Z,4.15
2022-10-25T17:04:49.168Z,6.38
2022-10-25T17:07:18.061Z,4.72
2022-10-25T17:09:46.282Z,5.70
2022-10-25T17:12:14.281Z,5.57
2022-10-25T17:14:42.887Z,8.73
2022-10-25T17:17:11.895Z,7.13
2022-10-25T17:19:40.185Z,4.85
2022-10-25T17:22:08.431Z,5.63
2022-10-25T17:24:37.758Z,3.63
2022-10-25T17:27:07.282Z,5.70
2022-10-25T17:29:35.180Z,8.48
2022-10-25T17:32:03.312Z,6.80
2022-10-25T17:34:32.263Z,5.25
2022-10-25T17:37:02.378Z,4.70
2022-10-25T17:39:31.138Z,5.43
2022-10-25T17:41:59.039Z,3.35
2022-10-25T17:44:26.979Z,4.45
2022-10-25T17:46:56.410Z,4.78
2022-10-25T17:49:26.561Z,5.25
2022-10-25T17:51:54.556Z,4.30
2022-10-25T17:54:24.911Z,7.03
2022-10-25T17:56:58.748Z,11.00
2022-10-25T17:59:30.518Z,6.55
2022-10-25T18:01:59.266Z,4.45
2022-10-25T18:04:27.360Z,4.13
2022-10-25T18:06:58.228Z,5.68
2022-10-25T18:09:26.091Z,5.55
2022-10-25T18:11:56.388Z,6.13
2022-10-25T18:14:24.375Z,6.05
2022-10-25T18:16:52.907Z,6.35
2022-10-25T18:19:20.786Z,4.97
2022-10-25T18:21:48.646Z,5.57
2022-10-25T18:24:16.598Z,13.45
2022-10-25T18:26:44.432Z,21.63
2022-10-25T18:29:13.336Z,4.43
2022-10-25T18:31:42.086Z,3.60
2022-10-25T18:34:10.073Z,6.13
2022-10-25T18:36:37.982Z,6.85
2022-10-25T18:39:05.970Z,6.43
2022-10-25T18:41:35.055Z,4.32
2022-10-25T18:44:05.250Z,4.68
2022-10-25T18:46:33.153Z,5.18
2022-10-25T18:49:01.133Z,4.25
2022-10-25T18:51:31.849Z,7.20
2022-10-25T18:54:01.884Z,8.93
2022-10-25T18:56:31.196Z,6.50
2022-10-25T18:58:59.848Z,8.85
2022-10-25T19:01:32.675Z,4.90
2022-10-25T19:04:02.751Z,6.70
2022-10-25T19:06:31.922Z,5.38
2022-10-25T19:09:03.994Z,5.18
2022-10-25T19:11:33.502Z,5.47
2022-10-25T19:14:03.193Z,7.25
2022-10-25T19:16:31.244Z,4.90
2022-10-25T19:19:07.371Z,5.47
2022-10-25T19:21:35.752Z,7.72
2022-10-25T19:24:04.488Z,5.10
2022-10-25T19:26:32.354Z,8.20
2022-10-25T19:29:01.836Z,9.02
2022-10-25T19:31:29.985Z,9.15
2022-10-25T19:34:03.229Z,6.57
2022-10-25T19:36:32.511Z,6.93
2022-10-25T19:39:01.640Z,7.05
2022-10-25T19:41:29.738Z,6.72
2022-10-25T19:43:58.425Z,6.45
2022-10-25T19:46:26.627Z,9.37
2022-10-25T19:48:56.493Z,9.00
2022-10-25T19:51:24.626Z,9.02
2022-10-25T19:53:52.673Z,11.82
2022-10-25T19:56:22.984Z,10.32
2022-10-25T19:58:51.254Z,9.70
2022-10-25T20:01:23.533Z,10.90
2022-10-25T20:03:54.724Z,11.50
2022-10-25T20:06:25.262Z,10.32
2022-10-25T20:08:54.116Z,11.05
2022-10-25T20:11:23.390Z,12.57
2022-10-25T20:14:00.595Z,8.75
2022-10-25T20:16:29.996Z,11.10
2022-10-25T20:19:00.998Z,11.63
2022-10-25T20:21:34.931Z,8.70
2022-10-25T20:24:06.431Z,10.15
2022-10-25T20:26:37.540Z,9.95
2022-10-25T20:29:08.686Z,10.10
2022-10-25T20:31:36.922Z,10.45
2022-10-25T20:34:05.202Z,12.95
2022-10-25T20:36:33.325Z,10.25
2022-10-25T20:39:01.420Z,11.93
2022-10-25T20:41:31.176Z,15.40
2022-10-25T20:44:04.883Z,10.32
2022-10-25T20:46:34.323Z,13.82
2022-10-25T20:49:03.677Z,12.20
2022-10-25T20:51:31.892Z,11.48
2022-10-25T20:54:00.099Z,9.45
2022-10-25T20:56:28.252Z,11.35
2022-10-25T20:58:57.808Z,13.10
2022-10-25T21:01:25.993Z,9.60
2022-10-25T21:03:54.448Z,14.18
2022-10-25T21:06:22.722Z,7.93
2022-10-25T21:08:50.718Z,12.45
2022-10-25T21:11:18.614Z,10.18
2022-10-25T21:13:46.578Z,8.95
2022-10-25T21:16:16.154Z,17.85
2022-10-25T21:18:44.362Z,11.77
2022-10-25T21:21:18.126Z,14.27
2022-10-25T21:23:46.815Z,12.45
2022-10-25T21:26:15.160Z,8.38
2022-10-25T21:28:43.151Z,11.73
2022-10-25T21:31:15.040Z,12.85
2022-10-25T21:33:49.945Z,10.75
2022-10-25T21:36:20.390Z,12.98
2022-10-25T21:38:48.523Z,10.75
2022-10-25T21:41:23.654Z,14.35
2022-10-25T21:43:51.473Z,11.27
2022-10-25T21:46:21.461Z,11.45
2022-10-25T21:48:52.859Z,15.63
2022-10-25T21:51:22.557Z,10.30
2022-10-25T21:53:50.503Z,12.38
2022-10-25T21:56:20.622Z,10.40
2022-10-25T21:58:50.971Z,12.02
2022-10-25T22:01:21.499Z,13.38
2022-10-25T22:03:49.823Z,10.45
2022-10-25T22:06:19.588Z,15.80
2022-10-25T22:08:48.361Z,10.98
2022-10-25T22:11:20.253Z,11.48
2022-10-25T22:13:48.510Z,14.45
2022-10-25T22:16:18.588Z,15.18
2022-10-25T22:18:52.483Z,13.35
2022-10-25T22:21:21.485Z,12.60
2022-10-25T22:23:49.953Z,10.80
2022-10-25T22:26:20.096Z,10.82
2022-10-25T22:28:55.702Z,12.93
2022-10-25T22:31:24.983Z,11.38
2022-10-25T22:33:54.929Z,9.88
2022-10-25T22:36:24.849Z,12.07
2022-10-25T22:38:52.771Z,10.77
2022-10-25T22:41:22.915Z,11.20
2022-10-25T22:43:51.111Z,12.10
2022-10-25T22:46:24.053Z,13.48
2022-10-25T22:48:54.287Z,9.95
2022-10-25T22:51:23.557Z,16.13
2022-10-25T22:53:52.003Z,12.10
2022-10-25T22:56:22.602Z,15.30
2022-10-25T22:59:01.868Z,14.15
2022-10-25T23:01:35.183Z,12.02
2022-10-25T23:04:05.886Z,14.77
2022-10-25T23:06:37.487Z,15.50
2022-10-25T23:09:09.292Z,12.30
2022-10-25T23:11:39.447Z,15.15
2022-10-25T23:14:13.422Z,10.98
2022-10-25T23:16:45.268Z,13.15
2022-10-25T23:19:13.051Z,14.35
2022-10-25T23:21:40.808Z,6.72
2022-10-25T23:24:09.595Z,12.45
2022-10-25T23:26:37.602Z,18.17
2022-10-25T23:29:05.842Z,13.77
2022-10-25T23:31:33.757Z,13.65
2022-10-25T23:34:02.037Z,14.50
2022-10-25T23:36:37.785Z,11.27
2022-10-25T23:39:07.681Z,11.38
2022-10-25T23:41:35.990Z,9.60
2022-10-25T23:44:03.931Z,11.45
2022-10-25T23:46:31.715Z,11.88
2022-10-25T23:48:59.873Z,11.00
2022-10-25T23:51:27.693Z,8.48
2022-10-25T23:53:55.448Z,16.10
2022-10-25T23:56:23.245Z,14.45
2022-10-25T23:58:53.851Z,23.88
